Callao, Missouri
Current Conditions -  °F | °C
As of 6:07 PM on Saturday 22 Nov 2014 (Local Time) from KIRK Reporting Station
Scattered Clouds Scattered Clouds  
Wind Chill: 56°   Ceiling: Unl
Heat Index: 56°   Visibility: 10mi
Dew Point: 50°   Wind: 9mph
Humidity: 80%   Direction: 190°S
Pressure: 29.81"   Gusts: NA
Location:  39.76°N, 92.62°W
Report Text: KIRK 230007Z AUTO 19008KT 10SM FEW026 SCT055 13/10 A2981 RMK AO2 T01330100
Loading
Personal Weather Stations






























Interactive Weather Map New forecast layout! Learn more

10-Day Weather Forecast

Advertisements
Track Severe Weather on mobile